createdAt,value
2023-05-22T00:00:46.843Z,100896.41
2023-05-22T00:03:16.369Z,100895.59
2023-05-22T00:05:45.993Z,100895.00
2023-05-22T00:08:15.547Z,100884.75
2023-05-22T00:10:45.641Z,100882.09
2023-05-22T00:13:17.756Z,100888.59
2023-05-22T00:15:47.310Z,100882.25
2023-05-22T00:18:17.026Z,100886.91
2023-05-22T00:20:46.644Z,100877.59
2023-05-22T00:23:17.377Z,100873.31
2023-05-22T00:25:47.100Z,100874.63
2023-05-22T00:28:19.170Z,100875.47
2023-05-22T00:30:48.775Z,100873.41
2023-05-22T00:33:18.491Z,100873.41
2023-05-22T00:35:48.093Z,100875.72
2023-05-22T00:38:32.599Z,100865.34
2023-05-22T00:41:02.846Z,100877.75
2023-05-22T00:43:35.321Z,100867.25
2023-05-22T00:46:04.916Z,100872.25
2023-05-22T00:48:34.534Z,100875.84
2023-05-22T00:51:04.458Z,100864.50
2023-05-22T00:53:34.562Z,100864.25
2023-05-22T00:56:04.229Z,100860.06
2023-05-22T00:58:36.372Z,100869.78
2023-05-22T01:01:07.860Z,100871.59
2023-05-22T01:03:42.551Z,100868.16
2023-05-22T01:06:12.193Z,100866.34
2023-05-22T01:08:42.130Z,100875.75
2023-05-22T01:11:18.082Z,100863.38
2023-05-22T01:13:58.758Z,100861.69
2023-05-22T01:16:35.246Z,100858.59
2023-05-22T01:19:16.283Z,100864.69
2023-05-22T01:22:00.380Z,100868.50
2023-05-22T01:25:04.227Z,100861.59
2023-05-22T01:28:05.582Z,100863.72
2023-05-22T01:30:47.911Z,100858.72
2023-05-22T01:33:18.926Z,100852.66
2023-05-22T01:35:54.282Z,100855.53
2023-05-22T01:38:24.651Z,100849.56
2023-05-22T01:40:56.814Z,100844.09
2023-05-22T01:43:26.458Z,100846.47
2023-05-22T01:45:58.689Z,100840.50
2023-05-22T01:48:28.210Z,100843.28
2023-05-22T01:50:59.175Z,100850.06
2023-05-22T01:53:36.271Z,100858.19
2023-05-22T01:56:09.163Z,100857.97
2023-05-22T01:58:46.218Z,100854.84
2023-05-22T02:01:22.013Z,100853.69
2023-05-22T02:03:56.723Z,100851.50
2023-05-22T02:06:29.154Z,100847.34
2023-05-22T02:08:58.859Z,100839.47
2023-05-22T02:11:30.552Z,100842.22
2023-05-22T02:14:01.983Z,100843.50
2023-05-22T02:16:35.174Z,100839.22
2023-05-22T02:19:06.774Z,100831.97
2023-05-22T02:21:37.056Z,100833.97
2023-05-22T02:24:07.077Z,100832.19
2023-05-22T02:26:37.304Z,100817.16
2023-05-22T02:29:06.880Z,100825.50
2023-05-22T02:31:39.291Z,100831.00
2023-05-22T02:34:08.949Z,100822.03
2023-05-22T02:36:39.974Z,100824.66
2023-05-22T02:39:10.502Z,100815.97
2023-05-22T02:41:40.028Z,100820.50
2023-05-22T02:44:09.561Z,100817.16
2023-05-22T02:46:41.774Z,100808.81
2023-05-22T02:49:11.403Z,100812.66
2023-05-22T02:51:40.921Z,100805.69
2023-05-22T02:54:10.478Z,100812.16
2023-05-22T02:56:40.000Z,100809.75
2023-05-22T02:59:09.520Z,100807.75
2023-05-22T03:01:41.700Z,100797.84
2023-05-22T03:04:13.084Z,100805.84
2023-05-22T03:06:46.436Z,100807.00
2023-05-22T03:09:16.165Z,100807.25
2023-05-22T03:11:45.777Z,100805.31
2023-05-22T03:14:15.359Z,100801.50
2023-05-22T03:16:47.624Z,100799.81
2023-05-22T03:19:18.478Z,100802.41
2023-05-22T03:21:50.148Z,100800.31
2023-05-22T03:24:19.962Z,100803.34
2023-05-22T03:26:49.552Z,100798.84
2023-05-22T03:29:26.430Z,100802.09
2023-05-22T03:32:00.127Z,100800.91
2023-05-22T03:34:30.201Z,100803.16
2023-05-22T03:37:00.618Z,100812.47
2023-05-22T03:39:30.135Z,100810.84
2023-05-22T03:42:04.554Z,100808.47
2023-05-22T03:44:34.126Z,100810.22
2023-05-22T03:47:07.210Z,100812.94
2023-05-22T03:49:36.722Z,100806.50
2023-05-22T03:52:08.169Z,100809.41
2023-05-22T03:54:37.685Z,100808.22
2023-05-22T03:57:08.684Z,100805.34
2023-05-22T03:59:38.738Z,100806.66
2023-05-22T04:02:13.305Z,100803.19
2023-05-22T04:04:46.477Z,100809.97
2023-05-22T04:07:18.664Z,100801.38
2023-05-22T04:09:48.196Z,100806.66
2023-05-22T04:12:17.810Z,100805.53
2023-05-22T04:14:47.317Z,100809.53
2023-05-22T04:17:19.380Z,100808.78
2023-05-22T04:19:49.259Z,100805.06
2023-05-22T04:22:20.089Z,100811.75
2023-05-22T04:24:50.657Z,100813.09
2023-05-22T04:27:22.429Z,100814.22
2023-05-22T04:29:52.114Z,100815.69
2023-05-22T04:32:24.367Z,100820.56
2023-05-22T04:34:53.914Z,100823.44
2023-05-22T04:37:24.901Z,100820.84
2023-05-22T04:39:58.322Z,100820.47
2023-05-22T04:42:28.379Z,100826.44
2023-05-22T04:44:58.248Z,100819.91
2023-05-22T04:47:32.031Z,100817.88
2023-05-22T04:50:07.138Z,100818.22
2023-05-22T04:52:37.550Z,100814.53
2023-05-22T04:55:08.708Z,100812.31
2023-05-22T04:57:38.230Z,100805.00
2023-05-22T05:00:12.078Z,100808.97
2023-05-22T05:02:44.728Z,100808.75
2023-05-22T05:05:15.949Z,100800.88
2023-05-22T05:07:48.373Z,100803.63
2023-05-22T05:10:19.363Z,100800.06
2023-05-22T05:12:48.976Z,100798.00
2023-05-22T05:15:18.707Z,100799.81
2023-05-22T05:17:51.100Z,100798.41
2023-05-22T05:20:20.727Z,100795.78
2023-05-22T05:22:51.219Z,100795.25
2023-05-22T05:25:20.909Z,100794.56
2023-05-22T05:27:50.503Z,100797.94
2023-05-22T05:30:21.299Z,100796.63
2023-05-22T05:33:10.488Z,100789.94
2023-05-22T05:35:46.400Z,100796.63
2023-05-22T05:38:17.282Z,100791.25
2023-05-22T05:40:47.256Z,100797.00
2023-05-22T05:43:17.747Z,100791.72
2023-05-22T05:45:47.528Z,100797.22
2023-05-22T05:48:19.744Z,100792.19
2023-05-22T05:50:50.957Z,100799.47
2023-05-22T05:53:21.211Z,100803.66
2023-05-22T05:55:55.936Z,100799.25
2023-05-22T05:58:26.170Z,100801.75
2023-05-22T06:01:07.756Z,100800.22
2023-05-22T06:03:42.934Z,100796.63
2023-05-22T06:06:17.667Z,100795.41
2023-05-22T06:09:25.910Z,100801.06
2023-05-22T06:12:27.873Z,100800.81
2023-05-22T06:14:57.392Z,100799.16
2023-05-22T06:17:27.394Z,100805.59
2023-05-22T06:19:59.814Z,100794.38
2023-05-22T06:22:29.601Z,100803.44
2023-05-22T06:25:00.591Z,100796.88
2023-05-22T06:27:32.220Z,100799.38
2023-05-22T06:30:04.729Z,100799.53
2023-05-22T06:32:39.717Z,100806.44
2023-05-22T06:35:13.947Z,100801.16
2023-05-22T06:37:43.904Z,100804.53
2023-05-22T06:40:14.957Z,100805.97
2023-05-22T06:42:57.150Z,100810.13
2023-05-22T06:45:34.966Z,100817.50
2023-05-22T06:48:16.963Z,100808.59
2023-05-22T06:51:10.013Z,100809.16
2023-05-22T06:53:39.928Z,100816.81
2023-05-22T06:56:15.079Z,100820.25
2023-05-22T06:59:06.068Z,100814.78
2023-05-22T07:02:04.780Z,100820.31
2023-05-22T07:05:10.684Z,100807.19
2023-05-22T07:07:54.392Z,100810.44
2023-05-22T07:10:28.072Z,100819.97
2023-05-22T07:12:59.814Z,100814.59
2023-05-22T07:15:30.226Z,100813.38
2023-05-22T07:18:02.009Z,100811.41
2023-05-22T07:20:33.227Z,100811.53
2023-05-22T07:23:14.944Z,100816.97
2023-05-22T07:25:46.799Z,100821.88
2023-05-22T07:28:18.599Z,100810.22
2023-05-22T07:31:02.071Z,100814.13
2023-05-22T07:33:33.221Z,100812.09
2023-05-22T07:36:02.894Z,100813.47
2023-05-22T07:38:35.815Z,100809.91
2023-05-22T07:41:06.231Z,100809.50
2023-05-22T07:43:37.338Z,100804.22
2023-05-22T07:46:09.591Z,100808.22
2023-05-22T07:48:48.295Z,100802.81
2023-05-22T07:51:19.118Z,100798.88
2023-05-22T08:03:39.956Z,100800.06
2023-05-22T08:06:10.162Z,100807.53
2023-05-22T08:08:40.093Z,100798.94
2023-05-22T08:11:09.995Z,100804.34
2023-05-22T08:13:40.671Z,100792.03
2023-05-22T08:16:11.263Z,100803.03
2023-05-22T08:18:43.364Z,100802.75
2023-05-22T08:21:12.982Z,100801.91
2023-05-22T08:23:42.531Z,100797.81
2023-05-22T08:26:12.361Z,100795.22
2023-05-22T08:28:44.451Z,100798.88
2023-05-22T08:31:14.243Z,100799.13
2023-05-22T08:33:46.405Z,100788.91
2023-05-22T08:36:16.495Z,100791.84
2023-05-22T08:38:46.024Z,100788.66
2023-05-22T08:41:16.621Z,100785.66
2023-05-22T08:43:46.167Z,100779.25
2023-05-22T08:46:16.314Z,100774.44
2023-05-22T08:48:48.862Z,100786.00
2023-05-22T08:51:21.440Z,100779.44
2023-05-22T08:53:54.399Z,100773.28
2023-05-22T08:56:25.525Z,100775.75
2023-05-22T08:58:57.230Z,100783.59
2023-05-22T09:01:27.606Z,100780.69
2023-05-22T09:04:02.873Z,100773.19
2023-05-22T09:06:33.047Z,100770.19
2023-05-22T09:09:03.356Z,100772.59
2023-05-22T09:11:32.989Z,100773.69
2023-05-22T09:14:10.046Z,100772.69
2023-05-22T09:16:47.737Z,100767.84
2023-05-22T09:19:20.038Z,100769.16
2023-05-22T09:21:51.005Z,100769.16
2023-05-22T09:24:20.831Z,100768.75
2023-05-22T09:26:52.691Z,100766.16
2023-05-22T09:29:22.602Z,100765.13
2023-05-22T09:31:52.205Z,100760.22
2023-05-22T09:34:24.357Z,100773.03
2023-05-22T09:36:53.892Z,100760.88
2023-05-22T09:39:23.417Z,100757.28
2023-05-22T09:41:53.627Z,100753.59
2023-05-22T09:44:27.218Z,100754.16
2023-05-22T09:46:57.474Z,100754.47
2023-05-22T09:49:30.329Z,100755.19
2023-05-22T09:52:03.083Z,100757.69
2023-05-22T09:54:37.280Z,100754.09
2023-05-22T09:57:09.527Z,100755.25
2023-05-22T09:59:41.217Z,100756.91
2023-05-22T10:02:11.590Z,100754.84
2023-05-22T10:04:45.678Z,100744.69
2023-05-22T10:07:16.621Z,100746.22
2023-05-22T10:09:49.534Z,100739.00
2023-05-22T10:12:20.950Z,100748.81
2023-05-22T10:14:50.685Z,100749.94
2023-05-22T10:17:20.641Z,100749.47
2023-05-22T10:19:54.340Z,100743.97
2023-05-22T10:22:26.057Z,100741.19
2023-05-22T10:24:57.770Z,100742.94
2023-05-22T10:27:27.284Z,100740.03
2023-05-22T10:30:01.370Z,100745.34
2023-05-22T10:32:41.803Z,100742.38
2023-05-22T10:35:22.160Z,100729.44
2023-05-22T10:37:57.589Z,100730.31
2023-05-22T10:40:31.793Z,100728.44
2023-05-22T10:43:02.498Z,100721.69
2023-05-22T10:45:33.286Z,100714.09
2023-05-22T10:48:07.129Z,100725.75
2023-05-22T10:50:39.499Z,100723.22
2023-05-22T10:53:22.863Z,100716.66
2023-05-22T10:55:52.843Z,100719.22
2023-05-22T10:58:28.976Z,100711.47
2023-05-22T11:01:12.957Z,100718.34
2023-05-22T11:03:56.337Z,100714.84
2023-05-22T11:06:46.256Z,100713.38
2023-05-22T11:09:23.548Z,100711.28
2023-05-22T11:12:21.602Z,100710.22
2023-05-22T11:14:53.385Z,100708.31
2023-05-22T11:17:27.118Z,100707.81
2023-05-22T11:20:01.740Z,100706.50
2023-05-22T11:22:39.440Z,100709.06
2023-05-22T11:25:12.303Z,100705.75
2023-05-22T11:27:43.786Z,100700.81
2023-05-22T11:30:14.525Z,100697.78
2023-05-22T11:32:46.050Z,100692.91
2023-05-22T11:35:17.473Z,100690.13
2023-05-22T11:37:50.115Z,100689.34
2023-05-22T11:40:21.287Z,100684.91
2023-05-22T11:42:51.065Z,100681.31
2023-05-22T11:45:21.540Z,100684.13
2023-05-22T11:47:51.573Z,100692.72
2023-05-22T11:50:29.852Z,100678.94
2023-05-22T11:53:13.088Z,100672.88
2023-05-22T11:55:42.423Z,100676.00
2023-05-22T11:58:11.928Z,100671.84
2023-05-22T12:00:41.652Z,100672.16
2023-05-22T12:03:12.124Z,100663.63
2023-05-22T12:05:41.736Z,100671.09
2023-05-22T12:08:13.945Z,100661.16
2023-05-22T12:10:49.807Z,100657.03
2023-05-22T12:13:25.780Z,100663.66
2023-05-22T12:15:56.970Z,100663.69
2023-05-22T12:18:26.584Z,100664.22
2023-05-22T12:20:57.369Z,100663.66
2023-05-22T12:23:31.787Z,100668.38
2023-05-22T12:26:02.689Z,100670.91
2023-05-22T12:28:34.431Z,100667.31
2023-05-22T12:31:03.950Z,100666.47
2023-05-22T12:33:33.993Z,100664.84
2023-05-22T12:36:03.585Z,100663.19
2023-05-22T12:38:36.603Z,100657.91
2023-05-22T12:41:06.629Z,100652.09
2023-05-22T12:43:36.104Z,100654.03
2023-05-22T12:46:05.632Z,100652.09
2023-05-22T12:48:35.158Z,100655.97
2023-05-22T12:51:04.683Z,100651.25
2023-05-22T12:53:36.749Z,100651.81
2023-05-22T12:56:06.731Z,100654.28
2023-05-22T12:58:36.237Z,100653.47
2023-05-22T13:01:06.060Z,100652.34
2023-05-22T13:03:35.748Z,100661.22
2023-05-22T13:06:05.226Z,100646.25
2023-05-22T13:08:37.306Z,100650.69
2023-05-22T13:11:06.979Z,100644.06
2023-05-22T13:13:36.612Z,100646.28
2023-05-22T13:16:06.253Z,100641.03
2023-05-22T13:18:35.975Z,100649.34
2023-05-22T13:21:06.343Z,100644.63
2023-05-22T13:23:38.760Z,100643.53
2023-05-22T13:26:08.311Z,100641.03
2023-05-22T13:28:37.784Z,100631.63
2023-05-22T13:31:07.318Z,100635.53
2023-05-22T13:33:36.963Z,100628.31
2023-05-22T13:36:07.078Z,100631.66
2023-05-22T13:38:39.234Z,100625.84
2023-05-22T13:41:08.821Z,100622.81
2023-05-22T13:43:38.330Z,100628.59
2023-05-22T13:46:08.302Z,100621.69
2023-05-22T13:48:37.754Z,100608.16
2023-05-22T13:51:13.131Z,100611.22
2023-05-22T13:53:45.263Z,100600.16
2023-05-22T13:56:15.111Z,100606.50
2023-05-22T13:58:44.593Z,100596.00
2023-05-22T14:01:14.096Z,100591.56
2023-05-22T14:03:44.812Z,100581.31
2023-05-22T14:06:14.343Z,100581.56
2023-05-22T14:08:46.473Z,100571.59
2023-05-22T14:11:16.079Z,100577.38
2023-05-22T14:13:45.844Z,100581.22
2023-05-22T14:16:15.453Z,100577.88
2023-05-22T14:18:45.004Z,100579.53
2023-05-22T14:21:14.585Z,100569.88
2023-05-22T14:23:46.614Z,100567.97
2023-05-22T14:26:16.137Z,100571.56
2023-05-22T14:28:45.910Z,100572.13
2023-05-22T14:31:15.594Z,100567.97
2023-05-22T14:33:45.171Z,100561.09
2023-05-22T14:36:21.515Z,100551.97
2023-05-22T14:38:53.592Z,100550.88
2023-05-22T14:41:23.237Z,100562.50
2023-05-22T14:43:52.783Z,100574.38
2023-05-22T14:46:22.296Z,100560.03
2023-05-22T14:48:51.778Z,100553.13
2023-05-22T14:51:22.914Z,100545.38
2023-05-22T14:53:55.099Z,100548.97
2023-05-22T14:56:24.892Z,100552.31
2023-05-22T14:58:54.345Z,100546.22
2023-05-22T15:01:23.873Z,100545.94
2023-05-22T15:03:53.415Z,100548.16
2023-05-22T15:06:22.962Z,100555.91
2023-05-22T15:08:55.004Z,100557.31
2023-05-22T15:11:24.517Z,100555.63
2023-05-22T15:13:54.422Z,100544.03
2023-05-22T15:16:25.866Z,100534.31
2023-05-22T15:18:55.544Z,100524.66
2023-05-22T15:21:25.886Z,100519.69
2023-05-22T15:23:58.980Z,100515.53
2023-05-22T15:26:28.519Z,100516.09
2023-05-22T15:29:01.319Z,100515.56
2023-05-22T15:31:31.148Z,100519.72
2023-05-22T15:34:00.882Z,100521.09
2023-05-22T15:36:31.532Z,100526.88
2023-05-22T15:39:03.759Z,100534.63
2023-05-22T15:41:33.260Z,100543.19
2023-05-22T15:44:02.741Z,100543.72
2023-05-22T15:46:32.200Z,100548.97
2023-05-22T15:51:40.043Z,100560.31
2023-05-22T15:54:12.195Z,100558.13
2023-05-22T15:56:41.662Z,100558.13
2023-05-22T15:59:11.126Z,100555.06
2023-05-22T16:01:40.772Z,100550.94
2023-05-22T16:04:10.347Z,100549.25
2023-05-22T16:06:39.824Z,100548.19
2023-05-22T16:09:12.168Z,100545.41
2023-05-22T16:11:41.713Z,100550.66
2023-05-22T16:14:11.377Z,100550.09
2023-05-22T16:16:41.145Z,100547.59
2023-05-22T16:19:11.526Z,100552.03
2023-05-22T16:21:41.586Z,100569.72
2023-05-22T16:24:14.004Z,100563.34
2023-05-22T16:26:43.573Z,100571.06
2023-05-22T16:29:13.117Z,100573.53
2023-05-22T16:31:42.742Z,100572.94
2023-05-22T16:34:12.401Z,100566.28
2023-05-22T16:36:41.941Z,100575.41
2023-05-22T16:39:15.564Z,100577.31
2023-05-22T16:41:45.145Z,100583.66
2023-05-22T16:44:14.696Z,100591.63
2023-05-22T16:46:44.232Z,100594.88
2023-05-22T16:49:13.879Z,100590.44
2023-05-22T16:51:43.480Z,100589.06
2023-05-22T16:54:15.794Z,100595.66
2023-05-22T16:56:45.273Z,100594.78
2023-05-22T16:59:14.748Z,100593.38
2023-05-22T17:01:44.644Z,100600.16
2023-05-22T17:04:15.917Z,100597.03
2023-05-22T17:06:45.725Z,100599.75
2023-05-22T17:09:17.899Z,100588.94
2023-05-22T17:11:47.497Z,100589.09
2023-05-22T17:14:17.006Z,100589.00
2023-05-22T17:16:46.593Z,100578.34
2023-05-22T17:19:16.189Z,100574.41
2023-05-22T17:21:46.269Z,100575.19
2023-05-22T17:24:18.329Z,100567.09
2023-05-22T17:26:49.082Z,100571.53
2023-05-22T17:29:18.591Z,100567.06
2023-05-22T17:31:48.256Z,100554.38
2023-05-22T17:34:17.927Z,100554.03
2023-05-22T17:36:47.482Z,100553.44
2023-05-22T17:39:19.657Z,100549.34
2023-05-22T17:41:49.250Z,100553.19
2023-05-22T17:44:18.910Z,100554.47
2023-05-22T17:46:49.581Z,100568.56
2023-05-22T17:49:19.178Z,100564.41
2023-05-22T17:51:48.646Z,100570.47
2023-05-22T17:54:20.753Z,100568.81
2023-05-22T17:56:50.304Z,100583.88
2023-05-22T17:59:19.837Z,100584.13
2023-05-22T18:01:49.416Z,100580.44
2023-05-22T18:04:18.939Z,100583.22
2023-05-22T18:06:48.441Z,100577.59
2023-05-22T18:09:20.563Z,100567.44
2023-05-22T18:11:50.168Z,100562.16
2023-05-22T18:14:19.649Z,100556.94
2023-05-22T18:16:49.110Z,100567.66
2023-05-22T18:19:18.676Z,100572.50
2023-05-22T18:21:48.164Z,100582.81
2023-05-22T18:24:20.208Z,100592.09
2023-05-22T18:26:49.703Z,100606.38
2023-05-22T18:29:19.324Z,100623.78
2023-05-22T18:31:48.835Z,100634.78
2023-05-22T18:34:18.355Z,100644.78
2023-05-22T18:36:49.380Z,100644.25
2023-05-22T18:39:21.614Z,100650.97
2023-05-22T18:41:51.090Z,100650.22
2023-05-22T18:44:20.551Z,100649.06
2023-05-22T18:46:50.153Z,100660.53
2023-05-22T18:49:19.703Z,100666.69
2023-05-22T18:51:49.332Z,100659.56
2023-05-22T18:54:21.380Z,100665.53
2023-05-22T18:56:50.861Z,100691.53
2023-05-22T18:59:20.649Z,100684.84
2023-05-22T19:01:50.115Z,100691.41
2023-05-22T19:04:19.610Z,100700.06
2023-05-22T19:06:49.113Z,100695.78
2023-05-22T19:09:22.275Z,100696.19
2023-05-22T19:11:51.784Z,100704.84
2023-05-22T19:14:21.314Z,100702.19
2023-05-22T19:16:50.838Z,100712.19
2023-05-22T19:19:20.396Z,100716.94
2023-05-22T19:21:49.911Z,100723.97
2023-05-22T19:24:21.990Z,100744.34
2023-05-22T19:26:51.550Z,100751.78
2023-05-22T19:29:21.176Z,100766.66
2023-05-22T19:31:50.735Z,100775.75
2023-05-22T19:34:20.236Z,100781.75
2023-05-22T19:36:51.753Z,100787.75
2023-05-22T19:39:23.815Z,100802.59
2023-05-22T19:41:54.658Z,100809.38
2023-05-22T19:44:24.252Z,100808.97
2023-05-22T19:46:53.955Z,100804.16
2023-05-22T19:49:23.499Z,100806.88
2023-05-22T19:51:55.990Z,100798.91
2023-05-22T19:54:28.418Z,100790.66
2023-05-22T19:56:58.013Z,100789.81
2023-05-22T19:59:27.609Z,100795.03
2023-05-22T20:01:57.235Z,100799.63
2023-05-22T20:04:26.888Z,100798.66
2023-05-22T20:06:58.794Z,100802.16
2023-05-22T20:09:30.937Z,100803.09
2023-05-22T20:12:00.562Z,100799.38
2023-05-22T20:14:30.114Z,100801.66
2023-05-22T20:16:59.640Z,100798.56
2023-05-22T20:19:29.170Z,100792.88
2023-05-22T20:21:59.128Z,100801.13
2023-05-22T20:24:31.296Z,100796.13
2023-05-22T20:27:01.204Z,100789.44
2023-05-22T20:29:30.776Z,100794.22
2023-05-22T20:32:00.311Z,100786.50
2023-05-22T20:34:29.909Z,100787.72
2023-05-22T20:37:00.333Z,100780.56
2023-05-22T20:39:32.519Z,100785.72
2023-05-22T20:42:03.511Z,100780.03
2023-05-22T20:44:33.304Z,100781.09
2023-05-22T20:47:03.518Z,100778.34
2023-05-22T20:49:34.980Z,100778.81
2023-05-22T20:52:05.832Z,100783.56
2023-05-22T20:54:38.267Z,100784.91
2023-05-22T20:57:08.369Z,100777.44
2023-05-22T20:59:38.023Z,100780.38
2023-05-22T21:02:07.738Z,100780.88
2023-05-22T21:04:37.257Z,100780.69
2023-05-22T21:09:47.041Z,100788.28
2023-05-22T21:12:16.614Z,100774.78
2023-05-22T21:14:47.211Z,100787.00
2023-05-22T21:17:16.823Z,100783.28
2023-05-22T21:19:46.331Z,100784.59
2023-05-22T21:22:15.819Z,100777.91
2023-05-22T21:24:47.834Z,100769.56
2023-05-22T21:27:17.401Z,100774.69
2023-05-22T21:29:46.872Z,100784.84
2023-05-22T21:32:16.331Z,100771.84
2023-05-22T21:34:46.831Z,100774.47
2023-05-22T21:37:16.394Z,100769.34
2023-05-22T21:39:48.470Z,100776.38
2023-05-22T21:42:18.377Z,100768.53
2023-05-22T21:44:47.846Z,100767.91
2023-05-22T21:47:17.383Z,100768.03
2023-05-22T21:49:46.841Z,100770.28
2023-05-22T21:52:18.239Z,100760.63
2023-05-22T21:54:50.330Z,100766.97
2023-05-22T21:57:19.803Z,100756.00
2023-05-22T21:59:51.036Z,100757.06
2023-05-22T22:02:20.562Z,100746.72
2023-05-22T22:04:50.060Z,100753.16
2023-05-22T22:07:19.569Z,100748.16
2023-05-22T22:09:52.139Z,100737.19
2023-05-22T22:12:21.563Z,100731.34
2023-05-22T22:14:51.168Z,100735.53
2023-05-22T22:17:25.634Z,100740.53
2023-05-22T22:19:57.210Z,100726.19
2023-05-22T22:22:27.571Z,100727.03
2023-05-22T22:24:59.690Z,100730.25
2023-05-22T22:27:29.191Z,100726.09
2023-05-22T22:29:58.662Z,100733.84
2023-05-22T22:32:28.138Z,100728.47
2023-05-22T22:34:57.681Z,100732.97
2023-05-22T22:37:27.138Z,100733.63
2023-05-22T22:39:59.259Z,100738.38
2023-05-22T22:42:28.986Z,100726.34
2023-05-22T22:44:58.468Z,100727.16
2023-05-22T22:47:28.040Z,100718.47
2023-05-22T22:49:58.679Z,100710.00
2023-05-22T22:52:28.188Z,100713.13
2023-05-22T22:55:00.491Z,100710.59
2023-05-22T22:57:30.279Z,100705.13
2023-05-22T23:00:00.037Z,100710.03
2023-05-22T23:02:30.858Z,100699.06
2023-05-22T23:05:00.890Z,100707.88
2023-05-22T23:07:30.454Z,100696.56
2023-05-22T23:10:02.477Z,100693.81
2023-05-22T23:12:35.236Z,100697.38
2023-05-22T23:15:05.877Z,100709.06
2023-05-22T23:17:35.624Z,100688.31
2023-05-22T23:20:05.597Z,100694.19
2023-05-22T23:22:35.067Z,100694.41
2023-05-22T23:25:07.856Z,100696.28
2023-05-22T23:27:37.566Z,100691.78
2023-05-22T23:30:08.135Z,100687.50
2023-05-22T23:32:37.745Z,100686.06
2023-05-22T23:35:09.703Z,100697.81
2023-05-22T23:37:39.221Z,100702.34
2023-05-22T23:40:12.321Z,100699.13
2023-05-22T23:42:41.877Z,100702.22
2023-05-22T23:45:11.592Z,100693.06
2023-05-22T23:47:41.113Z,100697.22
2023-05-22T23:50:11.412Z,100693.91
2023-05-22T23:52:40.973Z,100691.97
2023-05-22T23:55:13.463Z,100696.63
2023-05-22T23:57:42.783Z,100692.09
